Harvey, ND

5:24 PM CST on November 22, 2017 (GMT -0600)
Harvey

Weather History for K5H4 - August, 2013

Change the Weather History Date:

Thursday, August 8, 2013

  Actual Average (KRUG) Record (KRUG)
Temperature  
Mean Temperature 58 °F -  
Max Temperature 71 °F 82 °F 102 °F (1949)
Min Temperature 44 °F 54 °F 40 °F (1989)
Degree Days  
Heating Degree Days 8    
Growing Degree Days 8 (Base 50)    
Moisture  
Dew Point 51 °F    
Average Humidity 80    
Maximum Humidity 100    
Minimum Humidity 50    
Precipitation  
Precipitation 0.00 in - - ()
Sea Level Pressure  
Sea Level Pressure 30.07 in    
Wind  
Wind Speed 5 mph (NW)    
Max Wind Speed 17 mph    
Max Gust Speed 22 mph    
Visibility 9 miles    
Events Fog    
Averages and records for this station are not official NWS values.
T = Trace of Precipitation, MM = Missing Value Source: NWS Daily Summary

Daily Weather History Graph

Daily Weather History Graph

Search for Another Location

Airport or City:

Trip Planner

Search our weather history database for the weather conditions in past years. The results will help you decide how hot, cold, wet, or windy it might be!

Date:

Astronomy

Aug. 08, 2013 Rise Set
Actual Time 6:26 AM CDT 9:03 PM CDT
Civil Twilight 5:51 AM CDT 9:38 PM CDT
Nautical Twilight 5:06 AM CDT 10:22 PM CDT
Astronomical Twilight 4:14 AM CDT 11:14 PM CDT
Moon 8:27 AM CDT (8/8) 9:27 PM CDT (8/8)
Length of Visible Light 15h 47m
Length of Day
14h 37m
Waxing Crescent, 3% of the Moon is Illuminated
Aug 8
Waxing Crescent
Aug 14
First Quarter
Aug 20
Full
Aug 28
Last Quarter
Sep 5
New

Hourly Weather History & Observations

Time (CDT) Temp. Windchill Dew Point Humidity Pressure Visibility Wind Dir Wind Speed Gust Speed Precip Events Conditions
12:15 AM 53.6 °F - 53.6 °F 100% 30.06 in 10.0 mi Calm Calm - N/A   Partly Cloudy
12:35 AM 51.8 °F - 51.8 °F 100% 30.06 in 10.0 mi Calm Calm - N/A   Clear
12:55 AM 51.8 °F - 51.8 °F 100% 30.06 in 10.0 mi North 3.5 mph - N/A   Clear
1:15 AM 51.8 °F - 51.8 °F 100% 30.06 in 10.0 mi Calm Calm - N/A   Partly Cloudy
1:35 AM 50.0 °F - 50.0 °F 100% 30.06 in 10.0 mi Calm Calm - N/A   Partly Cloudy
1:55 AM 50.0 °F - 50.0 °F 100% 30.06 in 10.0 mi Calm Calm - N/A   Clear
2:15 AM 48.2 °F - 48.2 °F 100% 30.07 in 6.0 mi SW 3.5 mph - N/A   Clear
2:35 AM 50.0 °F - 50.0 °F 100% 30.06 in 10.0 mi Calm Calm - N/A   Clear
2:55 AM 50.0 °F - 50.0 °F 100% 30.06 in 10.0 mi NW 3.5 mph - N/A   Clear
3:15 AM 48.2 °F - 48.2 °F 100% 30.06 in 8.0 mi Calm Calm - N/A   Clear
3:35 AM 46.4 °F 45.2 °F 46.4 °F 100% 30.05 in 8.0 mi NW 3.5 mph - N/A   Clear
3:55 AM 46.4 °F - 46.4 °F 100% 30.05 in 2.0 mi Calm Calm - N/A   Clear
4:15 AM 48.2 °F - 48.2 °F 100% 30.05 in 4.0 mi West 3.5 mph - N/A   Clear
4:35 AM 46.4 °F - 46.4 °F 100% 30.05 in 1.0 mi Calm Calm - N/A   Clear
4:55 AM 46.4 °F 45.2 °F 46.4 °F 100% 30.05 in 1.0 mi NW 3.5 mph - N/A   Clear
5:15 AM 44.6 °F 41.4 °F 44.6 °F 100% 30.05 in 0.2 mi SW 5.8 mph - N/A Fog Fog
5:35 AM 46.4 °F 45.2 °F 46.4 °F 100% 30.06 in 0.2 mi WNW 3.5 mph - N/A Fog Fog
5:55 AM 46.4 °F - 46.4 °F 100% 30.05 in 2.0 mi Calm Calm - N/A   Clear
6:15 AM 44.6 °F 43.1 °F 44.6 °F 100% 30.06 in 1.8 mi West 3.5 mph - N/A   Clear
6:35 AM 46.4 °F 45.2 °F 46.4 °F 100% 30.05 in 4.0 mi West 3.5 mph - N/A   Clear
6:55 AM 46.4 °F 42.4 °F 46.4 °F 100% 30.06 in 6.0 mi NW 8.1 mph - N/A   Clear
7:15 AM 48.2 °F - 48.2 °F 100% 30.06 in 8.0 mi NW 6.9 mph - N/A   Clear
7:35 AM 48.2 °F - 48.2 °F 100% 30.06 in 10.0 mi NW 5.8 mph - N/A   Clear
7:55 AM 50.0 °F - 50.0 °F 100% 30.07 in 10.0 mi NW 4.6 mph - N/A   Clear
8:15 AM 53.6 °F - 53.6 °F 100% 30.07 in 10.0 mi West 3.5 mph - N/A   Clear
8:35 AM 57.2 °F - 57.2 °F 100% 30.08 in 10.0 mi West 4.6 mph - N/A   Clear
8:55 AM 59.0 °F - 55.4 °F 88% 30.08 in 10.0 mi West 5.8 mph - N/A   Clear
9:15 AM 60.8 °F - 55.4 °F 82% 30.08 in 10.0 mi West 5.8 mph - N/A   Clear
9:35 AM 62.6 °F - 55.4 °F 77% 30.08 in 10.0 mi West 6.9 mph - N/A   Partly Cloudy
9:55 AM 62.6 °F - 53.6 °F 72% 30.08 in 10.0 mi West 9.2 mph - N/A   Scattered Clouds
10:15 AM 62.6 °F - 51.8 °F 68% 30.09 in 10.0 mi WNW 8.1 mph - N/A   Overcast
10:35 AM 62.6 °F - 50.0 °F 63% 30.09 in 10.0 mi WNW 9.2 mph - N/A   Mostly Cloudy
10:55 AM 64.4 °F - 51.8 °F 64% 30.09 in 10.0 mi WNW 9.2 mph - N/A   Overcast
11:15 AM 66.2 °F - 53.6 °F 64% 30.09 in 10.0 mi WNW 10.4 mph - N/A   Scattered Clouds
11:35 AM 66.2 °F - 53.6 °F 64% 30.09 in 10.0 mi WNW 8.1 mph - N/A   Mostly Cloudy
11:55 AM 66.2 °F - 53.6 °F 64% 30.09 in 10.0 mi NW 9.2 mph - N/A   Mostly Cloudy
12:15 PM 68.0 °F - 53.6 °F 60% 30.09 in 10.0 mi NW 8.1 mph 16.1 mph N/A   Mostly Cloudy
12:35 PM 68.0 °F - 53.6 °F 60% 30.08 in 10.0 mi WNW 10.4 mph - N/A   Mostly Cloudy
12:55 PM 68.0 °F - 53.6 °F 60% 30.08 in 10.0 mi NW 11.5 mph - N/A   Mostly Cloudy
1:15 PM 69.8 °F - 53.6 °F 56% 30.08 in 10.0 mi NNW 12.7 mph - N/A   Scattered Clouds
1:35 PM 69.8 °F - 53.6 °F 56% 30.08 in 10.0 mi NW 12.7 mph 19.6 mph N/A   Scattered Clouds
1:55 PM 68.0 °F - 53.6 °F 60% 30.08 in 10.0 mi NNW 15.0 mph 19.6 mph N/A   Mostly Cloudy
2:15 PM 68.0 °F - 55.4 °F 64% 30.08 in 10.0 mi NNW 10.4 mph 17.3 mph N/A   Scattered Clouds
2:35 PM 68.0 °F - 53.6 °F 60% 30.08 in 10.0 mi NW 13.8 mph 19.6 mph N/A   Partly Cloudy
2:55 PM 68.0 °F - 53.6 °F 60% 30.08 in 10.0 mi NW 16.1 mph 19.6 mph N/A   Partly Cloudy
3:15 PM 69.8 °F - 53.6 °F 56% 30.08 in 10.0 mi WNW 11.5 mph - N/A   Clear
3:35 PM 71.6 °F - 51.8 °F 50% 30.07 in 10.0 mi WNW 17.3 mph - N/A   Scattered Clouds
3:55 PM 69.8 °F - 53.6 °F 56% 30.07 in 10.0 mi NNW 13.8 mph 21.9 mph N/A   Mostly Cloudy
4:15 PM 68.0 °F - 53.6 °F 60% 30.06 in 10.0 mi NW 12.7 mph 17.3 mph N/A   Scattered Clouds
4:35 PM 68.0 °F - 53.6 °F 60% 30.06 in 10.0 mi NW 10.4 mph 17.3 mph N/A   Scattered Clouds
4:55 PM 68.0 °F - 53.6 °F 60% 30.06 in 10.0 mi NW 12.7 mph 19.6 mph N/A   Mostly Cloudy
5:15 PM 71.6 °F - 53.6 °F 53% 30.06 in 10.0 mi NW 15.0 mph 19.6 mph N/A   Mostly Cloudy
5:35 PM 69.8 °F - 53.6 °F 56% 30.06 in 10.0 mi NNW 11.5 mph - N/A   Scattered Clouds
5:55 PM 69.8 °F - 53.6 °F 56% 30.06 in 10.0 mi NNW 12.7 mph - N/A   Mostly Cloudy
6:15 PM 66.2 °F - 53.6 °F 64% 30.06 in 10.0 mi NW 11.5 mph - N/A   Partly Cloudy
6:35 PM 69.8 °F - 53.6 °F 56% 30.06 in 10.0 mi NNW 11.5 mph 18.4 mph N/A   Clear
6:55 PM 66.2 °F - 53.6 °F 64% 30.06 in 10.0 mi NNW 10.4 mph - N/A   Clear
7:15 PM 66.2 °F - 53.6 °F 64% 30.06 in 10.0 mi NNW 10.4 mph 16.1 mph N/A   Clear
7:35 PM 66.2 °F - 51.8 °F 60% 30.06 in 10.0 mi NNW 9.2 mph - N/A   Clear
7:55 PM 64.4 °F - 51.8 °F 64% 30.06 in 10.0 mi NNW 11.5 mph 16.1 mph N/A   Clear
8:15 PM 64.4 °F - 51.8 °F 64% 30.06 in 10.0 mi North 8.1 mph - N/A   Clear
8:35 PM 62.6 °F - 50.0 °F 63% 30.07 in 10.0 mi North 9.2 mph - N/A   Clear
8:55 PM 59.0 °F - 48.2 °F 67% 30.07 in 1.0 mi North 9.2 mph - N/A   Haze
9:15 PM 57.2 °F - 48.2 °F 72% 30.08 in 10.0 mi North 8.1 mph - N/A   Clear
9:35 PM 55.4 °F - 48.2 °F 77% 30.09 in 10.0 mi North 6.9 mph - N/A   Clear
9:55 PM 53.6 °F - 48.2 °F 82% 30.10 in 10.0 mi NNW 4.6 mph - N/A   Clear
10:15 PM 51.8 °F - 50.0 °F 94% 30.10 in 10.0 mi NNW 4.6 mph - N/A   Clear
10:35 PM 51.8 °F - 50.0 °F 94% 30.10 in 10.0 mi NNW 4.6 mph - N/A   Clear
10:55 PM 50.0 °F - 50.0 °F 100% 30.11 in 10.0 mi NNW 4.6 mph - N/A   Clear
11:15 PM 50.0 °F - 50.0 °F 100% 30.12 in 10.0 mi NNW 3.5 mph - N/A   Clear
11:35 PM 50.0 °F - 50.0 °F 100% 30.12 in 10.0 mi NNW 3.5 mph - N/A   Clear
11:55 PM 50.0 °F - 50.0 °F 100% 30.12 in 10.0 mi NW 3.5 mph - N/A   Clear